sensor_id;sensor_type;location;lat;lon;timestamp;P1;durP1;ratioP1;P2;durP2;ratioP2
54865;SDS011;40754;52.094;4.328;2023-07-31T00:01:59;38.60;;;9.52;;
54865;SDS011;40754;52.094;4.328;2023-07-31T00:04:24;43.00;;;9.32;;
54865;SDS011;40754;52.094;4.328;2023-07-31T00:06:50;49.05;;;9.68;;
54865;SDS011;40754;52.094;4.328;2023-07-31T00:09:15;43.33;;;9.95;;
54865;SDS011;40754;52.094;4.328;2023-07-31T00:11:41;46.58;;;9.77;;
54865;SDS011;40754;52.094;4.328;2023-07-31T00:14:06;53.55;;;11.10;;
54865;SDS011;40754;52.094;4.328;2023-07-31T00:16:32;56.95;;;11.90;;
54865;SDS011;40754;52.094;4.328;2023-07-31T00:18:57;46.85;;;11.00;;
54865;SDS011;40754;52.094;4.328;2023-07-31T00:21:25;47.55;;;10.65;;
54865;SDS011;40754;52.094;4.328;2023-07-31T00:23:50;37.65;;;9.05;;
54865;SDS011;40754;52.094;4.328;2023-07-31T00:26:16;44.45;;;10.10;;
54865;SDS011;40754;52.094;4.328;2023-07-31T00:28:47;44.47;;;9.25;;
54865;SDS011;40754;52.094;4.328;2023-07-31T00:31:13;41.55;;;9.23;;
54865;SDS011;40754;52.094;4.328;2023-07-31T00:33:38;38.17;;;10.13;;
54865;SDS011;40754;52.094;4.328;2023-07-31T00:36:04;40.33;;;9.60;;
54865;SDS011;40754;52.094;4.328;2023-07-31T00:38:29;39.15;;;10.25;;
54865;SDS011;40754;52.094;4.328;2023-07-31T00:40:55;41.47;;;9.52;;
54865;SDS011;40754;52.094;4.328;2023-07-31T00:43:20;44.55;;;9.32;;
54865;SDS011;40754;52.094;4.328;2023-07-31T00:45:46;41.70;;;8.82;;
54865;SDS011;40754;52.094;4.328;2023-07-31T00:48:12;44.88;;;9.30;;
54865;SDS011;40754;52.094;4.328;2023-07-31T00:50:37;32.40;;;9.60;;
54865;SDS011;40754;52.094;4.328;2023-07-31T00:53:04;44.00;;;9.90;;
54865;SDS011;40754;52.094;4.328;2023-07-31T00:55:29;35.33;;;8.63;;
54865;SDS011;40754;52.094;4.328;2023-07-31T00:57:55;42.15;;;9.68;;
54865;SDS011;40754;52.094;4.328;2023-07-31T01:00:21;32.22;;;9.05;;
54865;SDS011;40754;52.094;4.328;2023-07-31T01:02:50;34.83;;;9.32;;
54865;SDS011;40754;52.094;4.328;2023-07-31T01:05:16;42.70;;;9.82;;
54865;SDS011;40754;52.094;4.328;2023-07-31T01:07:49;42.50;;;9.32;;
54865;SDS011;40754;52.094;4.328;2023-07-31T01:10:21;40.88;;;8.68;;
54865;SDS011;40754;52.094;4.328;2023-07-31T01:12:50;46.20;;;10.65;;
54865;SDS011;40754;52.094;4.328;2023-07-31T01:15:16;49.75;;;11.40;;
54865;SDS011;40754;52.094;4.328;2023-07-31T01:17:42;38.70;;;10.07;;
54865;SDS011;40754;52.094;4.328;2023-07-31T01:20:18;45.42;;;10.80;;
54865;SDS011;40754;52.094;4.328;2023-07-31T01:25:49;47.03;;;10.98;;
54865;SDS011;40754;52.094;4.328;2023-07-31T01:28:23;38.22;;;9.48;;
54865;SDS011;40754;52.094;4.328;2023-07-31T01:30:53;39.25;;;9.70;;
54865;SDS011;40754;52.094;4.328;2023-07-31T01:33:20;35.22;;;9.50;;
54865;SDS011;40754;52.094;4.328;2023-07-31T01:35:46;36.08;;;9.77;;
54865;SDS011;40754;52.094;4.328;2023-07-31T01:38:13;28.67;;;8.15;;
54865;SDS011;40754;52.094;4.328;2023-07-31T01:40:40;33.70;;;8.45;;
54865;SDS011;40754;52.094;4.328;2023-07-31T01:43:06;24.92;;;7.72;;
54865;SDS011;40754;52.094;4.328;2023-07-31T01:45:32;35.53;;;8.15;;
54865;SDS011;40754;52.094;4.328;2023-07-31T01:47:57;32.85;;;8.60;;
54865;SDS011;40754;52.094;4.328;2023-07-31T01:50:23;29.92;;;8.05;;
54865;SDS011;40754;52.094;4.328;2023-07-31T01:52:48;37.38;;;9.50;;
54865;SDS011;40754;52.094;4.328;2023-07-31T01:55:14;39.00;;;9.15;;
54865;SDS011;40754;52.094;4.328;2023-07-31T01:57:39;33.88;;;9.55;;
54865;SDS011;40754;52.094;4.328;2023-07-31T02:00:05;37.58;;;9.57;;
54865;SDS011;40754;52.094;4.328;2023-07-31T02:02:31;31.42;;;8.43;;
54865;SDS011;40754;52.094;4.328;2023-07-31T02:04:56;37.22;;;9.15;;
54865;SDS011;40754;52.094;4.328;2023-07-31T02:07:22;40.83;;;9.80;;
54865;SDS011;40754;52.094;4.328;2023-07-31T02:09:48;35.42;;;9.30;;
54865;SDS011;40754;52.094;4.328;2023-07-31T02:12:13;30.38;;;9.10;;
54865;SDS011;40754;52.094;4.328;2023-07-31T02:14:39;32.83;;;9.07;;
54865;SDS011;40754;52.094;4.328;2023-07-31T02:17:05;34.20;;;9.02;;
54865;SDS011;40754;52.094;4.328;2023-07-31T02:19:31;35.17;;;9.43;;
54865;SDS011;40754;52.094;4.328;2023-07-31T02:21:56;37.53;;;9.40;;
54865;SDS011;40754;52.094;4.328;2023-07-31T02:24:23;37.67;;;9.27;;
54865;SDS011;40754;52.094;4.328;2023-07-31T02:26:49;45.92;;;10.32;;
54865;SDS011;40754;52.094;4.328;2023-07-31T02:29:14;37.85;;;8.63;;
54865;SDS011;40754;52.094;4.328;2023-07-31T02:31:40;45.05;;;10.80;;
54865;SDS011;40754;52.094;4.328;2023-07-31T02:34:06;41.22;;;9.48;;
54865;SDS011;40754;52.094;4.328;2023-07-31T02:36:32;32.28;;;8.70;;
54865;SDS011;40754;52.094;4.328;2023-07-31T02:38:57;32.55;;;8.77;;
54865;SDS011;40754;52.094;4.328;2023-07-31T02:41:23;39.40;;;10.18;;
54865;SDS011;40754;52.094;4.328;2023-07-31T02:43:48;41.78;;;8.73;;
54865;SDS011;40754;52.094;4.328;2023-07-31T02:46:13;48.83;;;9.05;;
54865;SDS011;40754;52.094;4.328;2023-07-31T02:48:39;35.03;;;7.85;;
54865;SDS011;40754;52.094;4.328;2023-07-31T02:51:04;31.52;;;8.15;;
54865;SDS011;40754;52.094;4.328;2023-07-31T02:53:30;33.55;;;8.60;;
54865;SDS011;40754;52.094;4.328;2023-07-31T02:55:55;37.60;;;9.15;;
54865;SDS011;40754;52.094;4.328;2023-07-31T02:58:21;35.03;;;8.30;;
54865;SDS011;40754;52.094;4.328;2023-07-31T03:00:46;33.13;;;8.40;;
54865;SDS011;40754;52.094;4.328;2023-07-31T03:03:12;38.25;;;8.80;;
54865;SDS011;40754;52.094;4.328;2023-07-31T03:05:37;43.42;;;10.25;;
54865;SDS011;40754;52.094;4.328;2023-07-31T03:08:03;38.20;;;9.27;;
54865;SDS011;40754;52.094;4.328;2023-07-31T03:10:29;35.05;;;8.20;;
54865;SDS011;40754;52.094;4.328;2023-07-31T03:12:54;36.17;;;8.60;;
54865;SDS011;40754;52.094;4.328;2023-07-31T03:15:19;37.40;;;8.65;;
54865;SDS011;40754;52.094;4.328;2023-07-31T03:17:45;43.58;;;8.50;;
54865;SDS011;40754;52.094;4.328;2023-07-31T03:20:11;38.63;;;9.07;;
54865;SDS011;40754;52.094;4.328;2023-07-31T03:22:36;45.47;;;9.88;;
54865;SDS011;40754;52.094;4.328;2023-07-31T03:25:03;38.17;;;8.82;;
54865;SDS011;40754;52.094;4.328;2023-07-31T03:27:29;39.67;;;8.65;;
54865;SDS011;40754;52.094;4.328;2023-07-31T03:29:54;28.60;;;7.45;;
54865;SDS011;40754;52.094;4.328;2023-07-31T03:32:20;35.78;;;8.68;;
54865;SDS011;40754;52.094;4.328;2023-07-31T03:34:45;33.22;;;7.90;;
54865;SDS011;40754;52.094;4.328;2023-07-31T03:37:11;49.20;;;8.82;;
54865;SDS011;40754;52.094;4.328;2023-07-31T03:39:36;33.63;;;8.18;;
54865;SDS011;40754;52.094;4.328;2023-07-31T03:42:02;37.88;;;8.18;;
54865;SDS011;40754;52.094;4.328;2023-07-31T03:44:27;34.83;;;8.15;;
54865;SDS011;40754;52.094;4.328;2023-07-31T03:46:53;32.53;;;6.90;;
54865;SDS011;40754;52.094;4.328;2023-07-31T03:49:18;19.83;;;6.05;;
54865;SDS011;40754;52.094;4.328;2023-07-31T03:51:44;22.15;;;6.30;;
54865;SDS011;40754;52.094;4.328;2023-07-31T03:54:09;15.15;;;4.60;;
54865;SDS011;40754;52.094;4.328;2023-07-31T03:56:35;21.40;;;5.25;;
54865;SDS011;40754;52.094;4.328;2023-07-31T03:59:03;22.40;;;5.60;;
54865;SDS011;40754;52.094;4.328;2023-07-31T04:01:28;21.40;;;5.05;;
54865;SDS011;40754;52.094;4.328;2023-07-31T04:03:54;18.33;;;5.50;;
54865;SDS011;40754;52.094;4.328;2023-07-31T04:06:22;22.25;;;5.15;;
54865;SDS011;40754;52.094;4.328;2023-07-31T04:08:49;21.90;;;5.13;;
54865;SDS011;40754;52.094;4.328;2023-07-31T04:11:14;12.00;;;4.15;;
54865;SDS011;40754;52.094;4.328;2023-07-31T04:13:40;13.77;;;4.10;;
54865;SDS011;40754;52.094;4.328;2023-07-31T04:16:05;14.27;;;3.50;;
54865;SDS011;40754;52.094;4.328;2023-07-31T04:18:31;13.95;;;3.28;;
54865;SDS011;40754;52.094;4.328;2023-07-31T04:20:57;12.13;;;3.40;;
54865;SDS011;40754;52.094;4.328;2023-07-31T04:23:23;10.98;;;3.00;;
54865;SDS011;40754;52.094;4.328;2023-07-31T04:25:49;8.60;;;2.70;;
54865;SDS011;40754;52.094;4.328;2023-07-31T04:28:15;11.05;;;2.75;;
54865;SDS011;40754;52.094;4.328;2023-07-31T04:30:40;7.00;;;2.30;;
54865;SDS011;40754;52.094;4.328;2023-07-31T04:33:06;11.45;;;2.78;;
54865;SDS011;40754;52.094;4.328;2023-07-31T04:35:31;16.63;;;2.97;;
54865;SDS011;40754;52.094;4.328;2023-07-31T04:37:57;10.43;;;2.30;;
54865;SDS011;40754;52.094;4.328;2023-07-31T04:40:23;14.90;;;2.30;;
54865;SDS011;40754;52.094;4.328;2023-07-31T04:42:48;20.25;;;2.70;;
54865;SDS011;40754;52.094;4.328;2023-07-31T04:45:14;16.00;;;3.00;;
54865;SDS011;40754;52.094;4.328;2023-07-31T04:47:39;10.40;;;2.25;;
54865;SDS011;40754;52.094;4.328;2023-07-31T04:50:05;10.43;;;2.40;;
54865;SDS011;40754;52.094;4.328;2023-07-31T04:52:31;14.73;;;2.65;;
54865;SDS011;40754;52.094;4.328;2023-07-31T04:54:56;9.05;;;2.90;;
54865;SDS011;40754;52.094;4.328;2023-07-31T04:57:21;7.15;;;2.35;;
54865;SDS011;40754;52.094;4.328;2023-07-31T04:59:47;8.18;;;2.65;;
54865;SDS011;40754;52.094;4.328;2023-07-31T05:02:12;11.45;;;3.40;;
54865;SDS011;40754;52.094;4.328;2023-07-31T05:04:38;9.93;;;3.00;;
54865;SDS011;40754;52.094;4.328;2023-07-31T05:07:04;10.68;;;3.17;;
54865;SDS011;40754;52.094;4.328;2023-07-31T05:09:29;10.02;;;2.70;;
54865;SDS011;40754;52.094;4.328;2023-07-31T05:11:55;9.35;;;3.20;;
54865;SDS011;40754;52.094;4.328;2023-07-31T05:14:21;8.43;;;2.92;;
54865;SDS011;40754;52.094;4.328;2023-07-31T05:16:46;7.50;;;2.60;;
54865;SDS011;40754;52.094;4.328;2023-07-31T05:19:12;8.23;;;2.67;;
54865;SDS011;40754;52.094;4.328;2023-07-31T05:21:37;8.75;;;3.03;;
54865;SDS011;40754;52.094;4.328;2023-07-31T05:24:03;3.75;;;2.03;;
54865;SDS011;40754;52.094;4.328;2023-07-31T05:26:28;6.25;;;2.40;;
54865;SDS011;40754;52.094;4.328;2023-07-31T05:28:54;5.43;;;2.53;;
54865;SDS011;40754;52.094;4.328;2023-07-31T05:31:19;9.00;;;2.80;;
54865;SDS011;40754;52.094;4.328;2023-07-31T05:33:45;4.72;;;2.50;;
54865;SDS011;40754;52.094;4.328;2023-07-31T05:36:11;6.10;;;3.10;;
54865;SDS011;40754;52.094;4.328;2023-07-31T05:38:37;9.07;;;2.97;;
54865;SDS011;40754;52.094;4.328;2023-07-31T05:41:02;8.68;;;3.30;;
54865;SDS011;40754;52.094;4.328;2023-07-31T05:43:28;8.90;;;2.80;;
54865;SDS011;40754;52.094;4.328;2023-07-31T05:45:53;8.45;;;3.22;;
54865;SDS011;40754;52.094;4.328;2023-07-31T05:48:18;9.07;;;3.58;;
54865;SDS011;40754;52.094;4.328;2023-07-31T05:50:44;11.35;;;3.08;;
54865;SDS011;40754;52.094;4.328;2023-07-31T05:53:10;13.82;;;3.45;;
54865;SDS011;40754;52.094;4.328;2023-07-31T05:55:36;13.15;;;3.67;;
54865;SDS011;40754;52.094;4.328;2023-07-31T05:58:01;15.23;;;3.10;;
54865;SDS011;40754;52.094;4.328;2023-07-31T06:00:27;11.15;;;3.28;;
54865;SDS011;40754;52.094;4.328;2023-07-31T06:02:53;18.25;;;3.88;;
54865;SDS011;40754;52.094;4.328;2023-07-31T06:05:18;14.63;;;3.80;;
54865;SDS011;40754;52.094;4.328;2023-07-31T06:07:44;12.57;;;3.85;;
54865;SDS011;40754;52.094;4.328;2023-07-31T06:10:09;20.02;;;3.67;;
54865;SDS011;40754;52.094;4.328;2023-07-31T06:12:38;13.93;;;3.53;;
54865;SDS011;40754;52.094;4.328;2023-07-31T06:15:04;18.05;;;4.20;;
54865;SDS011;40754;52.094;4.328;2023-07-31T06:17:30;13.30;;;3.38;;
54865;SDS011;40754;52.094;4.328;2023-07-31T06:19:56;13.05;;;3.47;;
54865;SDS011;40754;52.094;4.328;2023-07-31T06:22:23;16.27;;;4.05;;
54865;SDS011;40754;52.094;4.328;2023-07-31T06:24:48;13.50;;;4.28;;
54865;SDS011;40754;52.094;4.328;2023-07-31T06:27:14;20.67;;;5.25;;
54865;SDS011;40754;52.094;4.328;2023-07-31T06:29:39;20.55;;;4.95;;
54865;SDS011;40754;52.094;4.328;2023-07-31T06:32:06;25.73;;;5.85;;
54865;SDS011;40754;52.094;4.328;2023-07-31T06:34:31;15.73;;;4.78;;
54865;SDS011;40754;52.094;4.328;2023-07-31T06:36:57;23.88;;;5.20;;
54865;SDS011;40754;52.094;4.328;2023-07-31T06:39:23;19.38;;;5.45;;
54865;SDS011;40754;52.094;4.328;2023-07-31T06:41:48;25.63;;;6.10;;
54865;SDS011;40754;52.094;4.328;2023-07-31T06:44:14;22.15;;;5.22;;
54865;SDS011;40754;52.094;4.328;2023-07-31T06:46:39;24.95;;;5.65;;
54865;SDS011;40754;52.094;4.328;2023-07-31T06:49:05;25.58;;;5.05;;
54865;SDS011;40754;52.094;4.328;2023-07-31T06:51:30;20.50;;;5.78;;
54865;SDS011;40754;52.094;4.328;2023-07-31T06:53:58;24.48;;;6.82;;
54865;SDS011;40754;52.094;4.328;2023-07-31T06:56:24;24.90;;;6.05;;
54865;SDS011;40754;52.094;4.328;2023-07-31T06:58:51;25.58;;;6.18;;
54865;SDS011;40754;52.094;4.328;2023-07-31T07:01:16;25.30;;;6.35;;
54865;SDS011;40754;52.094;4.328;2023-07-31T07:03:42;22.70;;;6.68;;
54865;SDS011;40754;52.094;4.328;2023-07-31T07:06:07;35.40;;;6.18;;
54865;SDS011;40754;52.094;4.328;2023-07-31T07:08:33;33.55;;;7.05;;
54865;SDS011;40754;52.094;4.328;2023-07-31T07:10:58;26.40;;;6.03;;
54865;SDS011;40754;52.094;4.328;2023-07-31T07:13:24;26.80;;;7.18;;
54865;SDS011;40754;52.094;4.328;2023-07-31T07:15:49;29.80;;;6.10;;
54865;SDS011;40754;52.094;4.328;2023-07-31T07:18:15;27.98;;;6.53;;
54865;SDS011;40754;52.094;4.328;2023-07-31T07:20:50;25.38;;;5.45;;
54865;SDS011;40754;52.094;4.328;2023-07-31T07:23:17;27.48;;;6.25;;
54865;SDS011;40754;52.094;4.328;2023-07-31T07:25:43;24.15;;;5.75;;
54865;SDS011;40754;52.094;4.328;2023-07-31T07:28:11;26.27;;;5.78;;
54865;SDS011;40754;52.094;4.328;2023-07-31T07:30:37;21.33;;;5.55;;
54865;SDS011;40754;52.094;4.328;2023-07-31T07:33:02;26.23;;;6.47;;
54865;SDS011;40754;52.094;4.328;2023-07-31T07:35:28;23.73;;;5.90;;
54865;SDS011;40754;52.094;4.328;2023-07-31T07:37:53;29.42;;;6.40;;
54865;SDS011;40754;52.094;4.328;2023-07-31T07:40:20;31.38;;;6.45;;
54865;SDS011;40754;52.094;4.328;2023-07-31T07:42:45;32.50;;;6.88;;
54865;SDS011;40754;52.094;4.328;2023-07-31T07:45:11;35.33;;;6.50;;
54865;SDS011;40754;52.094;4.328;2023-07-31T07:47:38;32.08;;;5.95;;
54865;SDS011;40754;52.094;4.328;2023-07-31T07:50:06;30.63;;;6.03;;
54865;SDS011;40754;52.094;4.328;2023-07-31T07:52:32;22.15;;;5.45;;
54865;SDS011;40754;52.094;4.328;2023-07-31T07:54:57;34.58;;;6.72;;
54865;SDS011;40754;52.094;4.328;2023-07-31T07:57:23;26.73;;;6.05;;
54865;SDS011;40754;52.094;4.328;2023-07-31T07:59:48;31.30;;;6.03;;
54865;SDS011;40754;52.094;4.328;2023-07-31T08:02:14;28.92;;;5.65;;
54865;SDS011;40754;52.094;4.328;2023-07-31T08:04:39;37.70;;;5.50;;
54865;SDS011;40754;52.094;4.328;2023-07-31T08:07:05;25.83;;;6.38;;
54865;SDS011;40754;52.094;4.328;2023-07-31T08:09:30;29.63;;;5.72;;
54865;SDS011;40754;52.094;4.328;2023-07-31T08:11:59;31.45;;;5.95;;
54865;SDS011;40754;52.094;4.328;2023-07-31T08:14:27;28.45;;;4.75;;
54865;SDS011;40754;52.094;4.328;2023-07-31T08:16:53;29.00;;;5.40;;
54865;SDS011;40754;52.094;4.328;2023-07-31T08:19:18;24.42;;;5.15;;
54865;SDS011;40754;52.094;4.328;2023-07-31T08:21:44;30.38;;;5.25;;
54865;SDS011;40754;52.094;4.328;2023-07-31T08:24:10;29.17;;;6.32;;
54865;SDS011;40754;52.094;4.328;2023-07-31T08:26:35;27.75;;;5.82;;
54865;SDS011;40754;52.094;4.328;2023-07-31T08:29:01;38.47;;;5.75;;
54865;SDS011;40754;52.094;4.328;2023-07-31T08:31:27;21.77;;;5.22;;
54865;SDS011;40754;52.094;4.328;2023-07-31T08:33:54;30.02;;;5.78;;
54865;SDS011;40754;52.094;4.328;2023-07-31T08:36:19;35.03;;;5.90;;
54865;SDS011;40754;52.094;4.328;2023-07-31T08:38:45;32.60;;;5.40;;
54865;SDS011;40754;52.094;4.328;2023-07-31T08:41:11;26.85;;;4.78;;
54865;SDS011;40754;52.094;4.328;2023-07-31T08:43:38;24.65;;;5.35;;
54865;SDS011;40754;52.094;4.328;2023-07-31T08:46:04;28.88;;;4.97;;
54865;SDS011;40754;52.094;4.328;2023-07-31T08:48:30;25.17;;;5.20;;
54865;SDS011;40754;52.094;4.328;2023-07-31T08:50:57;24.45;;;4.65;;
54865;SDS011;40754;52.094;4.328;2023-07-31T08:53:23;33.92;;;5.45;;
54865;SDS011;40754;52.094;4.328;2023-07-31T08:55:48;23.23;;;5.10;;
54865;SDS011;40754;52.094;4.328;2023-07-31T08:58:14;27.58;;;4.68;;
54865;SDS011;40754;52.094;4.328;2023-07-31T09:00:40;24.67;;;5.03;;
54865;SDS011;40754;52.094;4.328;2023-07-31T09:03:08;27.83;;;5.07;;
54865;SDS011;40754;52.094;4.328;2023-07-31T09:05:35;24.67;;;4.65;;
54865;SDS011;40754;52.094;4.328;2023-07-31T09:08:02;17.13;;;4.05;;
54865;SDS011;40754;52.094;4.328;2023-07-31T09:10:29;23.23;;;5.15;;
54865;SDS011;40754;52.094;4.328;2023-07-31T09:12:55;25.75;;;4.60;;
54865;SDS011;40754;52.094;4.328;2023-07-31T09:15:21;30.73;;;5.15;;
54865;SDS011;40754;52.094;4.328;2023-07-31T09:17:47;25.13;;;4.63;;
54865;SDS011;40754;52.094;4.328;2023-07-31T09:20:13;18.02;;;4.30;;
54865;SDS011;40754;52.094;4.328;2023-07-31T09:22:39;18.55;;;4.28;;
54865;SDS011;40754;52.094;4.328;2023-07-31T09:27:47;22.48;;;4.85;;
54865;SDS011;40754;52.094;4.328;2023-07-31T09:30:16;25.52;;;4.78;;
54865;SDS011;40754;52.094;4.328;2023-07-31T09:32:43;22.55;;;4.90;;
54865;SDS011;40754;52.094;4.328;2023-07-31T09:35:51;20.92;;;4.32;;
54865;SDS011;40754;52.094;4.328;2023-07-31T09:38:20;22.70;;;5.15;;
54865;SDS011;40754;52.094;4.328;2023-07-31T09:40:46;16.83;;;4.18;;
54865;SDS011;40754;52.094;4.328;2023-07-31T09:43:13;21.13;;;4.15;;
54865;SDS011;40754;52.094;4.328;2023-07-31T09:45:44;21.73;;;5.57;;
54865;SDS011;40754;52.094;4.328;2023-07-31T09:48:13;21.00;;;4.82;;
54865;SDS011;40754;52.094;4.328;2023-07-31T09:50:46;21.88;;;4.53;;
54865;SDS011;40754;52.094;4.328;2023-07-31T09:53:13;23.73;;;5.00;;
54865;SDS011;40754;52.094;4.328;2023-07-31T09:55:42;19.40;;;5.03;;
54865;SDS011;40754;52.094;4.328;2023-07-31T09:58:09;21.17;;;4.05;;
54865;SDS011;40754;52.094;4.328;2023-07-31T10:00:45;16.10;;;4.50;;
54865;SDS011;40754;52.094;4.328;2023-07-31T10:03:10;20.48;;;4.72;;
54865;SDS011;40754;52.094;4.328;2023-07-31T10:05:37;21.98;;;4.60;;
54865;SDS011;40754;52.094;4.328;2023-07-31T10:08:06;17.60;;;4.50;;
54865;SDS011;40754;52.094;4.328;2023-07-31T10:10:33;18.95;;;4.03;;
54865;SDS011;40754;52.094;4.328;2023-07-31T10:13:09;14.43;;;4.03;;
54865;SDS011;40754;52.094;4.328;2023-07-31T10:15:37;20.10;;;4.28;;
54865;SDS011;40754;52.094;4.328;2023-07-31T10:18:06;22.38;;;4.18;;
54865;SDS011;40754;52.094;4.328;2023-07-31T10:20:32;13.05;;;3.58;;
54865;SDS011;40754;52.094;4.328;2023-07-31T10:22:58;15.55;;;4.22;;
54865;SDS011;40754;52.094;4.328;2023-07-31T10:25:26;17.88;;;3.92;;
54865;SDS011;40754;52.094;4.328;2023-07-31T10:27:52;19.90;;;4.70;;
54865;SDS011;40754;52.094;4.328;2023-07-31T10:30:20;24.88;;;4.47;;
54865;SDS011;40754;52.094;4.328;2023-07-31T10:32:47;18.30;;;4.40;;
54865;SDS011;40754;52.094;4.328;2023-07-31T10:35:15;15.07;;;4.15;;
54865;SDS011;40754;52.094;4.328;2023-07-31T10:37:41;14.75;;;4.28;;
54865;SDS011;40754;52.094;4.328;2023-07-31T10:40:26;19.30;;;3.80;;
54865;SDS011;40754;52.094;4.328;2023-07-31T10:42:53;15.30;;;4.28;;
54865;SDS011;40754;52.094;4.328;2023-07-31T10:45:30;15.00;;;4.57;;
54865;SDS011;40754;52.094;4.328;2023-07-31T10:50:29;13.80;;;3.35;;
54865;SDS011;40754;52.094;4.328;2023-07-31T10:52:57;14.27;;;3.75;;
54865;SDS011;40754;52.094;4.328;2023-07-31T10:55:31;18.75;;;3.85;;
54865;SDS011;40754;52.094;4.328;2023-07-31T10:58:06;15.02;;;4.13;;
54865;SDS011;40754;52.094;4.328;2023-07-31T11:00:44;20.15;;;4.45;;
54865;SDS011;40754;52.094;4.328;2023-07-31T11:03:12;19.40;;;4.40;;
54865;SDS011;40754;52.094;4.328;2023-07-31T11:05:43;24.65;;;4.20;;
54865;SDS011;40754;52.094;4.328;2023-07-31T11:13:14;20.27;;;3.78;;
54865;SDS011;40754;52.094;4.328;2023-07-31T11:15:40;9.93;;;3.30;;
54865;SDS011;40754;52.094;4.328;2023-07-31T11:18:05;17.23;;;4.35;;
54865;SDS011;40754;52.094;4.328;2023-07-31T11:20:33;18.48;;;3.92;;
54865;SDS011;40754;52.094;4.328;2023-07-31T11:23:04;15.63;;;3.60;;
54865;SDS011;40754;52.094;4.328;2023-07-31T11:25:32;14.45;;;3.53;;
54865;SDS011;40754;52.094;4.328;2023-07-31T11:28:01;14.77;;;3.55;;
54865;SDS011;40754;52.094;4.328;2023-07-31T11:30:28;9.48;;;2.90;;
54865;SDS011;40754;52.094;4.328;2023-07-31T11:32:54;13.95;;;3.75;;
54865;SDS011;40754;52.094;4.328;2023-07-31T11:35:20;21.23;;;3.50;;
54865;SDS011;40754;52.094;4.328;2023-07-31T11:37:47;13.95;;;3.42;;
54865;SDS011;40754;52.094;4.328;2023-07-31T11:40:13;10.82;;;3.08;;
54865;SDS011;40754;52.094;4.328;2023-07-31T11:42:39;13.38;;;3.30;;
54865;SDS011;40754;52.094;4.328;2023-07-31T11:45:06;11.25;;;3.08;;
54865;SDS011;40754;52.094;4.328;2023-07-31T11:47:33;13.30;;;2.97;;
54865;SDS011;40754;52.094;4.328;2023-07-31T11:50:05;14.93;;;3.20;;
54865;SDS011;40754;52.094;4.328;2023-07-31T11:52:36;13.00;;;3.03;;
54865;SDS011;40754;52.094;4.328;2023-07-31T11:55:04;18.05;;;2.95;;
54865;SDS011;40754;52.094;4.328;2023-07-31T11:57:31;12.02;;;3.15;;
54865;SDS011;40754;52.094;4.328;2023-07-31T11:59:58;13.30;;;3.28;;
54865;SDS011;40754;52.094;4.328;2023-07-31T12:02:23;17.02;;;2.90;;
54865;SDS011;40754;52.094;4.328;2023-07-31T12:04:49;13.50;;;3.10;;
54865;SDS011;40754;52.094;4.328;2023-07-31T12:07:14;13.15;;;3.08;;
54865;SDS011;40754;52.094;4.328;2023-07-31T12:09:56;10.95;;;3.13;;
54865;SDS011;40754;52.094;4.328;2023-07-31T12:12:22;16.40;;;2.88;;
54865;SDS011;40754;52.094;4.328;2023-07-31T12:14:48;9.57;;;3.05;;
54865;SDS011;40754;52.094;4.328;2023-07-31T12:17:16;12.85;;;3.13;;
54865;SDS011;40754;52.094;4.328;2023-07-31T12:19:42;11.55;;;3.28;;
54865;SDS011;40754;52.094;4.328;2023-07-31T12:22:14;13.95;;;3.20;;
54865;SDS011;40754;52.094;4.328;2023-07-31T12:24:42;11.02;;;3.20;;
54865;SDS011;40754;52.094;4.328;2023-07-31T12:27:12;12.02;;;3.20;;
54865;SDS011;40754;52.094;4.328;2023-07-31T12:29:39;9.57;;;2.80;;
54865;SDS011;40754;52.094;4.328;2023-07-31T12:32:22;12.00;;;2.90;;
54865;SDS011;40754;52.094;4.328;2023-07-31T12:37:15;6.97;;;2.30;;
54865;SDS011;40754;52.094;4.328;2023-07-31T12:39:41;14.82;;;2.92;;
54865;SDS011;40754;52.094;4.328;2023-07-31T12:42:06;10.60;;;2.90;;
54865;SDS011;40754;52.094;4.328;2023-07-31T12:44:32;11.65;;;2.53;;
54865;SDS011;40754;52.094;4.328;2023-07-31T12:46:57;10.68;;;2.70;;
54865;SDS011;40754;52.094;4.328;2023-07-31T12:49:23;8.30;;;2.60;;
54865;SDS011;40754;52.094;4.328;2023-07-31T12:51:48;14.65;;;2.78;;
54865;SDS011;40754;52.094;4.328;2023-07-31T12:54:14;13.18;;;2.08;;
54865;SDS011;40754;52.094;4.328;2023-07-31T12:56:39;8.45;;;2.17;;
54865;SDS011;40754;52.094;4.328;2023-07-31T12:59:05;8.35;;;2.90;;
54865;SDS011;40754;52.094;4.328;2023-07-31T13:01:31;8.18;;;1.95;;
54865;SDS011;40754;52.094;4.328;2023-07-31T13:03:57;13.32;;;1.70;;
54865;SDS011;40754;52.094;4.328;2023-07-31T13:06:24;15.48;;;2.08;;
54865;SDS011;40754;52.094;4.328;2023-07-31T13:08:50;8.70;;;1.48;;
54865;SDS011;40754;52.094;4.328;2023-07-31T13:11:16;4.65;;;1.80;;
54865;SDS011;40754;52.094;4.328;2023-07-31T13:13:42;9.43;;;1.92;;
54865;SDS011;40754;52.094;4.328;2023-07-31T13:16:07;5.32;;;2.22;;
54865;SDS011;40754;52.094;4.328;2023-07-31T13:18:33;7.00;;;2.60;;
54865;SDS011;40754;52.094;4.328;2023-07-31T13:20:58;9.05;;;3.10;;
54865;SDS011;40754;52.094;4.328;2023-07-31T13:23:24;12.02;;;3.22;;
54865;SDS011;40754;52.094;4.328;2023-07-31T13:25:49;13.52;;;3.60;;
54865;SDS011;40754;52.094;4.328;2023-07-31T13:28:15;15.00;;;3.70;;
54865;SDS011;40754;52.094;4.328;2023-07-31T13:30:40;15.07;;;3.35;;
54865;SDS011;40754;52.094;4.328;2023-07-31T13:33:06;15.93;;;3.67;;
54865;SDS011;40754;52.094;4.328;2023-07-31T13:35:31;19.75;;;3.55;;
54865;SDS011;40754;52.094;4.328;2023-07-31T13:37:57;13.07;;;3.30;;
54865;SDS011;40754;52.094;4.328;2023-07-31T13:40:23;10.90;;;3.05;;
54865;SDS011;40754;52.094;4.328;2023-07-31T13:42:48;10.75;;;2.95;;
54865;SDS011;40754;52.094;4.328;2023-07-31T13:45:14;12.18;;;3.00;;
54865;SDS011;40754;52.094;4.328;2023-07-31T13:47:39;12.00;;;3.28;;
54865;SDS011;40754;52.094;4.328;2023-07-31T13:50:05;16.98;;;3.63;;
54865;SDS011;40754;52.094;4.328;2023-07-31T13:52:31;17.25;;;3.42;;
54865;SDS011;40754;52.094;4.328;2023-07-31T13:55:00;14.27;;;3.28;;
54865;SDS011;40754;52.094;4.328;2023-07-31T13:57:25;14.10;;;3.10;;
54865;SDS011;40754;52.094;4.328;2023-07-31T13:59:50;19.30;;;4.25;;
54865;SDS011;40754;52.094;4.328;2023-07-31T14:02:16;10.40;;;2.35;;
54865;SDS011;40754;52.094;4.328;2023-07-31T14:04:42;6.93;;;2.10;;
54865;SDS011;40754;52.094;4.328;2023-07-31T14:07:07;7.75;;;2.10;;
54865;SDS011;40754;52.094;4.328;2023-07-31T14:09:33;6.32;;;2.03;;
54865;SDS011;40754;52.094;4.328;2023-07-31T14:11:58;9.73;;;2.22;;
54865;SDS011;40754;52.094;4.328;2023-07-31T14:14:24;6.13;;;1.75;;
54865;SDS011;40754;52.094;4.328;2023-07-31T14:16:49;4.20;;;1.90;;
54865;SDS011;40754;52.094;4.328;2023-07-31T14:19:14;4.82;;;1.60;;
54865;SDS011;40754;52.094;4.328;2023-07-31T14:21:40;6.57;;;1.80;;
54865;SDS011;40754;52.094;4.328;2023-07-31T14:24:05;6.65;;;1.83;;
54865;SDS011;40754;52.094;4.328;2023-07-31T14:26:31;9.10;;;1.60;;
54865;SDS011;40754;52.094;4.328;2023-07-31T14:28:56;9.98;;;2.13;;
54865;SDS011;40754;52.094;4.328;2023-07-31T14:31:23;6.82;;;2.63;;
54865;SDS011;40754;52.094;4.328;2023-07-31T14:33:48;4.68;;;1.35;;
54865;SDS011;40754;52.094;4.328;2023-07-31T14:36:14;8.30;;;1.95;;
54865;SDS011;40754;52.094;4.328;2023-07-31T14:38:39;7.70;;;1.65;;
54865;SDS011;40754;52.094;4.328;2023-07-31T14:41:05;4.85;;;1.42;;
54865;SDS011;40754;52.094;4.328;2023-07-31T14:43:30;6.60;;;1.90;;
54865;SDS011;40754;52.094;4.328;2023-07-31T14:45:56;4.70;;;1.50;;
54865;SDS011;40754;52.094;4.328;2023-07-31T14:48:24;6.72;;;1.30;;